createdAt,value
2023-01-02T00:02:27.730Z,3.75
2023-01-02T00:04:54.677Z,2.97
2023-01-02T00:07:21.274Z,2.92
2023-01-02T00:09:47.854Z,3.13
2023-01-02T00:12:14.500Z,2.97
2023-01-02T00:14:41.035Z,3.05
2023-01-02T00:17:08.753Z,3.47
2023-01-02T00:19:35.307Z,3.03
2023-01-02T00:22:01.847Z,3.30
2023-01-02T00:24:28.445Z,3.05
2023-01-02T00:26:54.981Z,3.00
2023-01-02T00:29:21.507Z,3.55
2023-01-02T00:31:48.146Z,3.53
2023-01-02T00:34:14.770Z,3.00
2023-01-02T00:36:41.333Z,2.88
2023-01-02T00:39:07.978Z,3.35
2023-01-02T00:41:34.621Z,2.80
2023-01-02T00:44:01.269Z,3.45
2023-01-02T00:46:27.941Z,3.63
2023-01-02T00:48:54.590Z,2.70
2023-01-02T00:51:21.129Z,3.58
2023-01-02T00:53:47.682Z,3.22
2023-01-02T00:56:14.306Z,3.03
2023-01-02T00:58:40.842Z,2.67
2023-01-02T01:01:07.473Z,3.03
2023-01-02T01:03:34.386Z,3.45
2023-01-02T01:06:07.531Z,2.92
2023-01-02T01:08:36.350Z,3.40
2023-01-02T01:11:14.039Z,2.85
2023-01-02T01:13:40.868Z,3.28
2023-01-02T01:16:10.134Z,3.47
2023-01-02T01:18:37.569Z,3.15
2023-01-02T01:21:15.604Z,3.65
2023-01-02T01:23:42.751Z,2.90
2023-01-02T01:26:12.556Z,2.90
2023-01-02T01:28:39.852Z,3.40
2023-01-02T01:31:12.044Z,3.08
2023-01-02T01:33:39.965Z,3.30
2023-01-02T01:36:09.644Z,3.08
2023-01-02T01:38:36.384Z,2.97
2023-01-02T01:41:03.451Z,3.38
2023-01-02T01:43:36.008Z,3.38
2023-01-02T01:46:03.388Z,2.95
2023-01-02T01:48:30.498Z,3.05
2023-01-02T01:50:57.398Z,3.05
2023-01-02T01:53:24.705Z,3.35
2023-01-02T01:56:00.466Z,4.00
2023-01-02T01:58:31.588Z,4.05
2023-01-02T02:00:58.756Z,3.50
2023-01-02T02:03:29.509Z,3.53
2023-01-02T02:05:58.771Z,3.17
2023-01-02T02:08:52.261Z,2.72
2023-01-02T02:11:19.182Z,3.20
2023-01-02T02:13:46.659Z,3.22
2023-01-02T02:16:23.674Z,3.20
2023-01-02T02:19:08.669Z,2.80
2023-01-02T02:22:07.348Z,3.17
2023-01-02T02:24:52.084Z,3.35
2023-01-02T02:27:27.818Z,3.17
2023-01-02T02:30:08.227Z,3.05
2023-01-02T02:32:40.602Z,2.97
2023-01-02T02:35:27.036Z,3.17
2023-01-02T02:38:15.897Z,3.10
2023-01-02T02:41:12.024Z,2.75
2023-01-02T02:43:50.954Z,3.28
2023-01-02T02:46:38.112Z,3.35
2023-01-02T02:49:35.370Z,3.15
2023-01-02T02:52:06.087Z,3.17
2023-01-02T02:54:53.941Z,3.28
2023-01-02T02:57:22.516Z,3.38
2023-01-02T02:59:49.104Z,3.10
2023-01-02T03:02:16.951Z,3.00
2023-01-02T03:04:51.217Z,3.53
2023-01-02T03:07:42.170Z,3.10
2023-01-02T03:10:34.309Z,3.00
2023-01-02T03:13:19.370Z,3.42
2023-01-02T03:16:04.509Z,3.30
2023-01-02T03:19:05.747Z,3.25
2023-01-02T03:21:46.172Z,3.00
2023-01-02T03:24:16.489Z,3.30
2023-01-02T03:26:47.345Z,2.72
2023-01-02T03:29:22.054Z,3.08
2023-01-02T03:31:53.093Z,3.30
2023-01-02T03:34:32.443Z,3.28
2023-01-02T03:37:03.852Z,3.28
2023-01-02T03:39:35.368Z,3.30
2023-01-02T03:42:08.591Z,3.67
2023-01-02T03:44:43.238Z,2.90
2023-01-02T03:47:46.942Z,2.65
2023-01-02T03:50:41.941Z,3.38
2023-01-02T03:53:08.558Z,3.42
2023-01-02T03:55:38.322Z,2.95
2023-01-02T03:58:39.475Z,2.55
2023-01-02T04:01:12.752Z,3.55
2023-01-02T04:03:48.124Z,2.97
2023-01-02T04:06:19.475Z,3.13
2023-01-02T04:08:56.592Z,3.22
2023-01-02T04:11:25.924Z,2.55
2023-01-02T04:13:58.353Z,3.10
2023-01-02T04:16:30.062Z,2.88
2023-01-02T04:19:24.499Z,3.17
2023-01-02T04:21:54.425Z,3.67
2023-01-02T04:24:28.563Z,2.92
2023-01-02T04:27:29.051Z,3.28
2023-01-02T04:29:56.635Z,2.83
2023-01-02T04:32:24.489Z,3.17
2023-01-02T04:34:53.011Z,3.00
2023-01-02T04:37:35.989Z,3.25
2023-01-02T04:40:12.504Z,3.10
2023-01-02T04:42:39.091Z,3.15
2023-01-02T04:45:06.178Z,3.13
2023-01-02T04:47:32.741Z,3.20
2023-01-02T04:49:59.436Z,2.70
2023-01-02T04:52:26.059Z,3.10
2023-01-02T04:54:52.646Z,4.18
2023-01-02T04:57:19.320Z,3.13
2023-01-02T04:59:45.862Z,3.22
2023-01-02T05:02:12.463Z,2.88
2023-01-02T05:04:39.178Z,3.40
2023-01-02T05:07:05.742Z,3.50
2023-01-02T05:09:32.629Z,3.03
2023-01-02T05:11:59.329Z,3.00
2023-01-02T05:14:25.924Z,3.25
2023-01-02T05:16:52.482Z,2.95
2023-01-02T05:19:19.115Z,2.70
2023-01-02T05:22:04.185Z,3.72
2023-01-02T05:24:30.909Z,3.25
2023-01-02T05:26:57.481Z,3.45
2023-01-02T05:29:24.074Z,3.17
2023-01-02T05:31:50.702Z,2.80
2023-01-02T05:34:17.701Z,3.17
2023-01-02T05:36:44.255Z,3.38
2023-01-02T05:39:12.473Z,3.45
2023-01-02T05:41:39.483Z,3.42
2023-01-02T05:44:08.710Z,3.00
2023-01-02T05:46:35.950Z,3.67
2023-01-02T05:49:09.703Z,2.90
2023-01-02T05:51:36.775Z,3.25
2023-01-02T05:54:04.080Z,3.53
2023-01-02T05:56:31.487Z,3.08
2023-01-02T05:58:58.534Z,2.90
2023-01-02T06:01:28.117Z,2.28
2023-01-02T06:03:58.004Z,3.55
2023-01-02T06:06:46.170Z,2.30
2023-01-02T06:09:14.292Z,3.17
2023-01-02T06:11:41.177Z,2.63
2023-01-02T06:14:09.053Z,3.38
2023-01-02T06:16:35.647Z,2.80
2023-01-02T06:19:02.359Z,2.83
2023-01-02T06:21:29.129Z,3.45
2023-01-02T06:23:57.281Z,3.70
2023-01-02T06:26:31.202Z,2.70
2023-01-02T06:29:01.232Z,2.67
2023-01-02T06:31:29.577Z,2.47
2023-01-02T06:34:01.361Z,3.08
2023-01-02T06:36:32.839Z,3.28
2023-01-02T06:38:59.491Z,3.42
2023-01-02T06:41:26.658Z,3.05
2023-01-02T06:43:53.349Z,2.80
2023-01-02T06:46:22.233Z,2.90
2023-01-02T06:48:50.350Z,2.70
2023-01-02T06:51:19.708Z,3.10
2023-01-02T06:53:46.579Z,3.00
2023-01-02T06:56:15.528Z,2.70
2023-01-02T06:58:42.113Z,2.65
2023-01-02T07:01:11.575Z,3.03
2023-01-02T07:03:38.285Z,2.97
2023-01-02T07:06:08.022Z,3.05
2023-01-02T07:08:34.653Z,3.50
2023-01-02T07:11:14.452Z,2.88
2023-01-02T07:13:42.761Z,3.47
2023-01-02T07:16:11.840Z,4.05
2023-01-02T07:18:38.956Z,2.42
2023-01-02T07:21:07.049Z,3.45
2023-01-02T07:23:34.452Z,3.38
2023-01-02T07:26:03.123Z,3.72
2023-01-02T07:28:30.548Z,3.17
2023-01-02T07:31:02.441Z,2.88
2023-01-02T07:33:29.927Z,3.53
2023-01-02T07:36:06.463Z,2.85
2023-01-02T07:38:33.605Z,2.90
2023-01-02T07:41:00.341Z,3.15
2023-01-02T07:43:26.978Z,2.90
2023-01-02T07:45:53.712Z,3.67
2023-01-02T07:48:20.328Z,2.63
2023-01-02T07:50:47.094Z,3.58
2023-01-02T07:53:13.916Z,3.10
2023-01-02T07:55:40.554Z,3.47
2023-01-02T07:58:07.731Z,2.83
2023-01-02T08:00:34.465Z,2.97
2023-01-02T08:03:01.279Z,3.50
2023-01-02T08:05:27.975Z,3.03
2023-01-02T08:07:54.592Z,3.70
2023-01-02T08:10:21.216Z,3.25
2023-01-02T08:12:47.832Z,3.25
2023-01-02T08:15:14.400Z,2.80
2023-01-02T08:17:41.610Z,3.95
2023-01-02T08:20:09.352Z,2.67
2023-01-02T08:22:36.204Z,2.47
2023-01-02T08:25:03.307Z,3.33
2023-01-02T08:27:30.020Z,3.38
2023-01-02T08:29:56.606Z,2.75
2023-01-02T08:32:23.199Z,3.30
2023-01-02T08:34:49.790Z,3.13
2023-01-02T08:37:16.484Z,3.53
2023-01-02T08:39:43.184Z,2.95
2023-01-02T08:42:09.975Z,3.47
2023-01-02T08:44:38.194Z,3.58
2023-01-02T08:47:06.017Z,2.75
2023-01-02T08:49:32.621Z,3.30
2023-01-02T08:51:59.285Z,3.17
2023-01-02T08:54:25.976Z,3.75
2023-01-02T08:56:52.665Z,3.42
2023-01-02T08:59:19.373Z,4.03
2023-01-02T09:01:46.196Z,4.18
2023-01-02T09:04:13.624Z,3.67
2023-01-02T09:06:41.179Z,4.18
2023-01-02T09:09:11.901Z,3.25
2023-01-02T09:11:51.120Z,4.05
2023-01-02T09:14:20.200Z,3.83
2023-01-02T09:16:47.607Z,4.13
2023-01-02T09:19:14.194Z,3.83
2023-01-02T09:21:40.816Z,4.15
2023-01-02T09:24:08.115Z,3.80
2023-01-02T09:26:35.196Z,4.05
2023-01-02T09:29:01.820Z,4.03
2023-01-02T09:31:28.457Z,3.70
2023-01-02T09:33:55.311Z,4.00
2023-01-02T09:36:22.727Z,3.65
2023-01-02T09:38:58.015Z,3.97
2023-01-02T09:41:53.103Z,4.40
2023-01-02T09:44:30.706Z,3.63
2023-01-02T09:47:04.242Z,3.65
2023-01-02T09:49:35.164Z,4.13
2023-01-02T09:52:01.864Z,4.40
2023-01-02T09:54:33.653Z,4.07
2023-01-02T09:57:31.151Z,3.72
2023-01-02T10:00:02.451Z,3.85
2023-01-02T10:03:07.405Z,3.88
2023-01-02T10:05:46.052Z,3.70
2023-01-02T10:08:46.122Z,3.90
2023-01-02T10:11:24.792Z,3.58
2023-01-02T10:14:20.626Z,3.80
2023-01-02T10:16:55.652Z,3.90
2023-01-02T10:19:31.085Z,4.22
2023-01-02T10:22:00.909Z,3.95
2023-01-02T10:24:42.231Z,3.45
2023-01-02T10:27:22.637Z,4.70
2023-01-02T10:30:01.180Z,3.67
2023-01-02T10:32:30.683Z,4.03
2023-01-02T10:35:06.226Z,4.68
2023-01-02T10:37:34.434Z,4.00
2023-01-02T10:40:01.393Z,3.90
2023-01-02T10:42:30.795Z,4.22
2023-01-02T10:44:57.375Z,4.63
2023-01-02T10:47:29.981Z,3.97
2023-01-02T10:49:57.279Z,4.28
2023-01-02T10:52:34.871Z,4.00
2023-01-02T10:55:03.159Z,4.60
2023-01-02T10:57:51.875Z,4.55
2023-01-02T11:00:22.575Z,4.32
2023-01-02T11:02:59.071Z,4.38
2023-01-02T11:05:31.268Z,3.90
2023-01-02T11:10:28.367Z,5.05
2023-01-02T11:12:55.227Z,5.05
2023-01-02T11:15:30.981Z,4.57
2023-01-02T11:17:58.721Z,4.70
2023-01-02T11:20:30.610Z,5.18
2023-01-02T11:23:01.510Z,4.53
2023-01-02T11:25:40.671Z,4.78
2023-01-02T11:28:16.919Z,4.63
2023-01-02T11:30:46.610Z,5.00
2023-01-02T11:33:25.279Z,4.55
2023-01-02T11:36:18.847Z,4.82
2023-01-02T11:38:59.504Z,5.32
2023-01-02T11:41:45.940Z,5.05
2023-01-02T11:44:25.397Z,4.60
2023-01-02T11:46:53.257Z,3.60
2023-01-02T11:49:26.497Z,3.78
2023-01-02T11:51:58.039Z,2.65
2023-01-02T11:54:41.955Z,2.85
2023-01-02T11:57:19.241Z,2.60
2023-01-02T11:59:49.056Z,2.30
2023-01-02T12:02:22.123Z,2.40
2023-01-02T12:04:49.185Z,1.90
2023-01-02T12:07:42.066Z,1.95
2023-01-02T12:10:25.693Z,1.60
2023-01-02T12:13:14.997Z,1.63
2023-01-02T12:15:41.522Z,2.03
2023-01-02T12:18:26.454Z,1.73
2023-01-02T12:21:18.866Z,1.70
2023-01-02T12:26:26.061Z,1.30
2023-01-02T12:29:46.082Z,1.42
2023-01-02T12:32:41.142Z,1.40
2023-01-02T12:35:41.801Z,1.55
2023-01-02T12:38:11.040Z,1.20
2023-01-02T12:40:59.661Z,1.00
2023-01-02T12:44:09.806Z,1.10
2023-01-02T12:47:02.122Z,1.05
2023-01-02T12:49:47.198Z,1.13
2023-01-02T12:52:42.902Z,1.52
2023-01-02T12:55:12.297Z,1.10
2023-01-02T12:57:44.724Z,1.40
2023-01-02T13:00:33.679Z,1.10
2023-01-02T13:03:23.220Z,1.70
2023-01-02T13:06:04.992Z,0.93
2023-01-02T13:09:03.479Z,1.08
2023-01-02T13:11:58.996Z,0.80
2023-01-02T13:14:37.176Z,0.95
2023-01-02T13:17:29.456Z,1.20
2023-01-02T13:39:44.092Z,1.23
2023-01-02T13:42:41.971Z,0.98
2023-01-02T13:45:16.135Z,1.00
2023-01-02T13:47:50.133Z,0.73
2023-01-02T13:50:32.563Z,0.70
2023-01-02T13:53:11.479Z,0.73
2023-01-02T13:55:41.180Z,0.85
2023-01-02T13:58:14.942Z,0.70
2023-01-02T14:00:51.594Z,0.88
2023-01-02T14:03:23.986Z,0.70
2023-01-02T14:05:56.800Z,0.50
2023-01-02T14:09:04.599Z,0.50
2023-01-02T14:11:55.736Z,0.30
2023-01-02T14:14:29.895Z,0.73
2023-01-02T14:17:05.828Z,0.50
2023-01-02T14:19:32.753Z,0.30
2023-01-02T14:21:59.288Z,0.52
2023-01-02T14:24:29.776Z,0.50
2023-01-02T14:27:04.838Z,0.47
2023-01-02T14:29:39.710Z,0.60
2023-01-02T14:32:17.288Z,0.60
2023-01-02T14:34:49.889Z,0.50
2023-01-02T14:37:44.083Z,0.35
2023-01-02T14:40:12.765Z,0.57
2023-01-02T14:43:00.323Z,0.40
2023-01-02T14:45:28.395Z,0.50
2023-01-02T14:48:00.929Z,0.50
2023-01-02T14:50:33.318Z,2.47
2023-01-02T14:53:09.949Z,0.70
2023-01-02T14:55:42.309Z,0.60
2023-01-02T14:58:48.533Z,0.68
2023-01-02T15:01:42.296Z,0.40
2023-01-02T15:04:17.074Z,0.40
2023-01-02T15:06:49.004Z,0.50
2023-01-02T15:09:28.467Z,0.47
2023-01-02T15:12:21.645Z,0.63
2023-01-02T15:14:48.218Z,0.40
2023-01-02T15:17:22.065Z,0.50
2023-01-02T15:19:49.358Z,0.40
2023-01-02T15:22:22.778Z,0.57
2023-01-02T15:24:52.064Z,0.45
2023-01-02T15:27:26.463Z,0.55
2023-01-02T15:30:17.551Z,0.50
2023-01-02T15:32:48.613Z,0.55
2023-01-02T15:35:30.043Z,0.63
2023-01-02T15:37:57.028Z,0.40
2023-01-02T15:40:23.596Z,0.32
2023-01-02T15:43:10.797Z,0.47
2023-01-02T15:45:45.004Z,0.40
2023-01-02T15:48:12.987Z,0.40
2023-01-02T15:50:40.703Z,0.38
2023-01-02T15:53:15.135Z,0.50
2023-01-02T15:55:42.199Z,0.40
2023-01-02T15:58:14.705Z,0.38
2023-01-02T16:00:42.368Z,0.47
2023-01-02T16:03:11.245Z,0.50
2023-01-02T16:05:49.612Z,0.65
2023-01-02T16:08:22.632Z,0.60
2023-01-02T16:10:51.473Z,0.47
2023-01-02T16:13:41.437Z,1.00
2023-01-02T16:16:15.719Z,0.70
2023-01-02T16:18:47.677Z,0.68
2023-01-02T16:21:16.112Z,0.68
2023-01-02T16:23:52.384Z,0.60
2023-01-02T16:26:21.787Z,0.50
2023-01-02T16:28:50.305Z,0.60
2023-01-02T16:31:19.881Z,0.70
2023-01-02T16:33:47.267Z,0.60
2023-01-02T16:36:16.800Z,0.68
2023-01-02T16:38:55.960Z,0.63
2023-01-02T16:41:36.598Z,0.60
2023-01-02T16:44:12.483Z,0.70
2023-01-02T16:46:43.058Z,0.65
2023-01-02T16:49:19.762Z,0.60
2023-01-02T16:51:50.564Z,0.55
2023-01-02T16:54:19.332Z,0.60
2023-01-02T16:56:47.112Z,0.50
2023-01-02T16:59:13.707Z,0.68
2023-01-02T17:01:40.390Z,0.80
2023-01-02T17:04:06.983Z,0.80
2023-01-02T17:06:33.641Z,0.75
2023-01-02T17:09:00.503Z,0.60
2023-01-02T17:11:27.302Z,0.80
2023-01-02T17:13:53.963Z,0.95
2023-01-02T17:16:20.744Z,0.82
2023-01-02T17:18:47.373Z,0.90
2023-01-02T17:21:14.293Z,0.60
2023-01-02T17:23:40.883Z,0.88
2023-01-02T17:26:07.495Z,1.00
2023-01-02T17:28:34.185Z,0.95
2023-01-02T17:31:00.896Z,0.65
2023-01-02T17:33:27.526Z,0.70
2023-01-02T17:35:54.177Z,0.80
2023-01-02T17:38:20.824Z,0.80
2023-01-02T17:40:47.501Z,0.95
2023-01-02T17:43:14.069Z,0.88
2023-01-02T17:45:42.978Z,0.50
2023-01-02T17:48:12.228Z,0.60
2023-01-02T17:50:40.789Z,0.80
2023-01-02T17:53:07.966Z,0.70
2023-01-02T17:55:34.930Z,0.90
2023-01-02T17:58:01.656Z,0.80
2023-01-02T18:00:28.744Z,0.60
2023-01-02T18:02:55.554Z,1.30
2023-01-02T18:05:22.961Z,0.98
2023-01-02T18:07:49.743Z,0.90
2023-01-02T18:10:20.035Z,0.63
2023-01-02T18:12:49.023Z,1.10
2023-01-02T18:15:16.469Z,0.85
2023-01-02T18:17:43.192Z,0.88
2023-01-02T18:20:12.825Z,0.90
2023-01-02T18:22:46.130Z,0.73
2023-01-02T18:25:27.606Z,1.10
2023-01-02T18:28:05.154Z,1.00
2023-01-02T18:30:31.835Z,0.93
2023-01-02T18:33:13.909Z,1.00
2023-01-02T18:35:57.220Z,0.88
2023-01-02T18:38:36.201Z,0.98
2023-01-02T18:41:24.403Z,1.27
2023-01-02T18:43:56.541Z,1.30
2023-01-02T18:49:24.169Z,1.20
2023-01-02T18:52:17.072Z,3.70
2023-01-02T18:54:46.322Z,1.08
2023-01-02T18:57:18.379Z,1.30
2023-01-02T19:02:39.833Z,1.45
2023-01-02T19:05:45.389Z,1.10
2023-01-02T19:08:25.508Z,1.30
2023-01-02T19:10:55.344Z,1.15
2023-01-02T19:13:32.328Z,1.50
2023-01-02T19:16:13.539Z,1.05
2023-01-02T19:18:41.822Z,1.42
2023-01-02T19:21:35.744Z,1.10
2023-01-02T19:24:24.199Z,1.30
2023-01-02T19:26:55.548Z,1.40
2023-01-02T19:29:24.839Z,1.33
2023-01-02T19:32:11.465Z,1.30
2023-01-02T19:34:52.080Z,1.40
2023-01-02T19:37:30.438Z,1.50
2023-01-02T19:40:00.195Z,1.35
2023-01-02T19:42:29.398Z,1.67
2023-01-02T19:45:01.721Z,1.48
2023-01-02T19:47:31.567Z,1.60
2023-01-02T19:49:59.324Z,1.70
2023-01-02T19:52:27.595Z,1.35
2023-01-02T19:54:54.827Z,1.50
2023-01-02T19:57:22.546Z,1.73
2023-01-02T19:59:50.992Z,1.80
2023-01-02T20:02:20.631Z,1.50
2023-01-02T20:04:50.029Z,1.20
2023-01-02T20:07:16.936Z,1.80
2023-01-02T20:09:44.507Z,1.65
2023-01-02T20:12:29.526Z,1.25
2023-01-02T20:15:07.349Z,1.58
2023-01-02T20:17:35.628Z,1.35
2023-01-02T20:20:03.087Z,1.70
2023-01-02T20:22:29.780Z,1.75
2023-01-02T20:24:56.351Z,1.80
2023-01-02T20:27:22.966Z,1.45
2023-01-02T20:29:51.028Z,1.50
2023-01-02T20:32:18.668Z,1.52
2023-01-02T20:34:45.335Z,1.70
2023-01-02T20:37:11.976Z,1.75
2023-01-02T20:39:38.608Z,1.85
2023-01-02T20:42:13.027Z,1.55
2023-01-02T20:44:40.325Z,1.40
2023-01-02T20:47:06.916Z,1.77
2023-01-02T20:49:33.470Z,1.67
2023-01-02T20:52:00.136Z,1.85
2023-01-02T20:54:27.056Z,1.67
2023-01-02T20:56:54.039Z,1.70
2023-01-02T20:59:21.335Z,2.30
2023-01-02T21:01:48.172Z,1.30
2023-01-02T21:04:18.793Z,1.80
2023-01-02T21:06:51.326Z,1.50
2023-01-02T21:09:17.839Z,1.73
2023-01-02T21:11:44.413Z,1.40
2023-01-02T21:14:11.076Z,1.40
2023-01-02T21:16:37.866Z,1.52
2023-01-02T21:19:04.644Z,1.48
2023-01-02T21:21:31.273Z,1.42
2023-01-02T21:23:57.904Z,1.42
2023-01-02T21:26:24.528Z,1.67
2023-01-02T21:28:51.217Z,1.52
2023-01-02T21:31:19.465Z,1.65
2023-01-02T21:33:47.201Z,1.98
2023-01-02T21:36:15.648Z,1.42
2023-01-02T21:38:43.579Z,1.50
2023-01-02T21:41:28.745Z,1.40
2023-01-02T21:43:55.556Z,1.77
2023-01-02T21:46:22.199Z,1.73
2023-01-02T21:48:49.019Z,1.65
2023-01-02T21:51:15.705Z,1.50
2023-01-02T21:53:42.273Z,1.60
2023-01-02T21:56:09.490Z,1.67
2023-01-02T21:58:36.200Z,1.63
2023-01-02T22:01:02.869Z,1.98
2023-01-02T22:03:29.731Z,2.13
2023-01-02T22:05:56.467Z,1.90
2023-01-02T22:08:23.028Z,1.58
2023-01-02T22:10:49.822Z,1.70
2023-01-02T22:13:16.573Z,1.63
2023-01-02T22:15:45.683Z,1.60
2023-01-02T22:18:12.797Z,2.10
2023-01-02T22:20:39.417Z,1.77
2023-01-02T22:23:06.084Z,2.05
2023-01-02T22:25:32.869Z,1.90
2023-01-02T22:27:59.650Z,2.20
2023-01-02T22:30:33.997Z,1.92
2023-01-02T22:33:02.191Z,2.10
2023-01-02T22:35:29.114Z,2.42
2023-01-02T22:37:57.304Z,2.17
2023-01-02T22:40:23.957Z,2.00
2023-01-02T22:43:05.427Z,2.40
2023-01-02T22:45:53.616Z,1.77
2023-01-02T22:48:20.109Z,1.80
2023-01-02T22:50:48.220Z,2.15
2023-01-02T22:53:37.915Z,2.25
2023-01-02T22:56:16.629Z,2.03
2023-01-02T22:58:43.848Z,1.95
2023-01-02T23:01:25.760Z,2.10
2023-01-02T23:03:52.390Z,1.95
2023-01-02T23:06:22.119Z,2.10
2023-01-02T23:08:49.379Z,2.08
2023-01-02T23:11:16.063Z,2.10
2023-01-02T23:13:43.346Z,2.17
2023-01-02T23:16:29.403Z,2.33
2023-01-02T23:19:14.715Z,2.00
2023-01-02T23:21:44.165Z,2.05
2023-01-02T23:24:12.517Z,2.13
2023-01-02T23:26:42.091Z,2.08
2023-01-02T23:29:09.602Z,2.15
2023-01-02T23:31:39.905Z,2.25
2023-01-02T23:34:07.263Z,1.92
2023-01-02T23:36:34.477Z,2.30
2023-01-02T23:39:02.186Z,2.45
2023-01-02T23:41:28.761Z,2.30
2023-01-02T23:43:55.364Z,1.73
2023-01-02T23:46:22.084Z,2.00
2023-01-02T23:48:48.837Z,2.30
2023-01-02T23:51:15.492Z,2.47
2023-01-02T23:53:42.093Z,2.08
2023-01-02T23:56:25.223Z,2.30
2023-01-02T23:58:53.526Z,2.22
